Time;durP1;ratioP1;P1;durP2;ratioP2;P2;SDS_P1;SDS_P2;PMS_P1;PMS_P2;Temp;Humidity;BMP_temperature;BMP_pressure;BME280_temperature;BME280_humidity;BME280_pressure;Samples;Min_cycle;Max_cycle;Signal;HPM_P1;HPM_P2
2022/03/02 00:01:20;;;;;;;11.83;10.43;;;;;;;0.95;73.18;97359.81;5111833;28;20235;-52
2022/03/02 00:03:47;;;;;;;13.30;11.53;;;;;;;0.97;73.82;97363.19;5113045;28;20295;-51
2022/03/02 00:06:13;;;;;;;17.57;11.80;;;;;;;0.90;74.09;97372.16;5113460;28;20198;-52
2022/03/02 00:08:40;;;;;;;14.43;11.13;;;;;;;0.89;73.50;97370.47;5113323;28;20207;-52
2022/03/02 00:11:06;;;;;;;11.97;10.70;;;;;;;0.93;74.41;97361.63;5113319;28;20201;-50
2022/03/02 00:13:34;;;;;;;12.63;10.90;;;;;;;0.90;73.84;97361.75;5113776;28;20260;-52
2022/03/02 00:16:00;;;;;;;13.80;11.23;;;;;;;0.88;74.17;97358.38;5113418;28;20232;-51
2022/03/02 00:18:27;;;;;;;17.70;12.63;;;;;;;0.85;74.17;97358.50;5110568;28;20232;-50
2022/03/02 00:20:54;;;;;;;14.27;10.97;;;;;;;0.87;74.93;97363.63;5112856;28;20227;-51
2022/03/02 00:23:20;;;;;;;14.17;11.20;;;;;;;0.81;74.71;97367.38;5114288;28;20214;-53
2022/03/02 00:25:47;;;;;;;13.57;11.13;;;;;;;0.80;74.64;97357.84;5116511;28;20202;-52
2022/03/02 00:28:14;;;;;;;14.43;11.60;;;;;;;0.82;74.76;97360.38;5114554;28;20293;-51
2022/03/02 00:30:42;;;;;;;15.47;11.73;;;;;;;0.80;75.62;97365.66;5112339;28;20242;-52
2022/03/02 00:33:09;;;;;;;14.53;11.47;;;;;;;0.82;75.49;97363.84;5110854;28;20214;-51
2022/03/02 00:35:36;;;;;;;13.00;11.60;;;;;;;0.78;75.57;97367.47;5112838;28;20201;-52
2022/03/02 00:38:03;;;;;;;13.43;11.53;;;;;;;0.74;75.30;97365.94;5113310;28;20206;-52
2022/03/02 00:40:29;;;;;;;13.83;11.63;;;;;;;0.76;75.04;97366.72;5120379;28;20217;-52
2022/03/02 00:42:56;;;;;;;14.57;11.20;;;;;;;0.80;75.03;97370.03;5122646;28;20532;-51
2022/03/02 00:45:25;;;;;;;15.10;11.67;;;;;;;0.72;75.40;97362.53;5116322;28;20233;-51
2022/03/02 00:47:53;;;;;;;12.53;10.57;;;;;;;0.70;76.08;97364.38;5114224;28;20211;-51
2022/03/02 00:50:20;;;;;;;13.47;11.13;;;;;;;0.61;75.79;97349.13;5113898;28;20222;-51
2022/03/02 00:52:48;;;;;;;15.33;11.33;;;;;;;0.64;75.48;97353.38;5113489;28;20303;-53
2022/03/02 00:55:14;;;;;;;12.97;10.57;;;;;;;0.62;75.92;97344.78;5111800;28;20614;-52
2022/03/02 00:57:41;;;;;;;13.80;11.03;;;;;;;0.55;75.45;97352.00;5111466;28;20648;-51
2022/03/02 01:00:08;;;;;;;13.97;11.43;;;;;;;0.58;75.71;97349.28;5111869;28;20209;-50
2022/03/02 01:02:35;;;;;;;14.57;11.40;;;;;;;0.57;77.46;97352.78;5111205;28;20241;-51
2022/03/02 01:05:04;;;;;;;13.50;10.53;;;;;;;0.54;76.84;97347.69;5111776;28;20596;-52
2022/03/02 01:07:30;;;;;;;12.23;10.80;;;;;;;0.47;76.26;97346.28;5112015;28;20212;-51
2022/03/02 01:09:57;;;;;;;14.33;10.50;;;;;;;0.54;76.80;97350.31;5111919;28;20654;-52
2022/03/02 01:12:23;;;;;;;13.47;10.73;;;;;;;0.52;75.59;97343.47;5111279;28;20211;-51
2022/03/02 01:14:50;;;;;;;11.47;10.23;;;;;;;0.54;76.22;97341.66;5111885;28;20201;-52
2022/03/02 01:17:17;;;;;;;13.10;10.83;;;;;;;0.54;76.06;97337.28;5112293;28;20208;-52
2022/03/02 01:19:44;;;;;;;13.17;10.90;;;;;;;0.54;75.70;97342.50;5112081;28;20206;-51
2022/03/02 01:22:12;;;;;;;12.67;10.93;;;;;;;0.44;75.79;97331.66;5111019;28;21491;-49
2022/03/02 01:24:38;;;;;;;16.17;11.23;;;;;;;0.52;75.74;97336.53;5110512;28;20244;-52
2022/03/02 01:27:05;;;;;;;12.60;11.30;;;;;;;0.42;75.77;97333.47;5111460;28;20209;-51
2022/03/02 01:29:33;;;;;;;14.20;11.17;;;;;;;0.36;76.05;97330.25;5111779;28;20224;-51
2022/03/02 01:32:00;;;;;;;15.43;11.33;;;;;;;0.44;76.27;97323.00;5111788;28;20193;-50
2022/03/02 01:34:27;;;;;;;13.37;11.27;;;;;;;0.33;76.83;97322.59;5111745;28;20198;-51
2022/03/02 01:36:54;;;;;;;14.30;11.80;;;;;;;0.36;76.12;97322.47;5111847;28;20563;-50
2022/03/02 01:39:21;;;;;;;13.00;10.23;;;;;;;0.33;75.89;97315.63;5111677;28;20197;-53
2022/03/02 01:41:48;;;;;;;17.70;11.87;;;;;;;0.33;76.00;97313.03;5111109;28;20204;-52
2022/03/02 01:44:15;;;;;;;14.13;10.97;;;;;;;0.29;75.98;97316.69;5110552;28;20221;-52
2022/03/02 01:46:42;;;;;;;12.97;10.80;;;;;;;0.24;77.02;97312.59;5111243;28;20225;-52
2022/03/02 01:49:09;;;;;;;13.33;11.00;;;;;;;0.29;77.57;97308.03;5111194;28;20877;-51
2022/03/02 01:51:35;;;;;;;13.70;11.13;;;;;;;0.24;76.05;97303.03;5111262;28;20638;-51
2022/03/02 01:54:02;;;;;;;13.80;11.07;;;;;;;0.22;76.35;97298.78;5111123;28;20202;-51
2022/03/02 01:56:30;;;;;;;14.37;10.80;;;;;;;0.21;76.00;97294.50;5111963;28;20204;-51
2022/03/02 01:58:57;;;;;;;14.50;10.53;;;;;;;0.24;76.29;97291.78;5111885;28;20517;-52
2022/03/02 02:01:23;;;;;;;13.70;11.17;;;;;;;0.24;76.07;97286.56;5111408;28;20249;-53
2022/03/02 02:03:50;;;;;;;13.47;10.87;;;;;;;0.24;76.23;97286.56;5110838;28;20211;-50
2022/03/02 02:06:16;;;;;;;15.97;12.40;;;;;;;0.15;76.90;97279.16;5111696;28;20211;-52
2022/03/02 02:08:44;;;;;;;15.40;11.87;;;;;;;0.15;76.01;97277.41;5111098;28;20201;-52
2022/03/02 02:11:12;;;;;;;13.57;11.40;;;;;;;0.17;76.33;97279.94;5111496;28;20233;-51
2022/03/02 02:13:40;;;;;;;13.93;11.80;;;;;;;0.16;77.34;97278.25;5111224;28;20216;-51
2022/03/02 02:16:09;;;;;;;15.90;11.70;;;;;;;0.20;77.42;97274.59;5109761;28;20223;-52
2022/03/02 02:18:35;;;;;;;14.33;12.10;;;;;;;0.17;77.06;97274.75;5111420;28;20261;-51
2022/03/02 02:21:04;;;;;;;14.07;11.53;;;;;;;0.08;76.81;97275.09;5111247;28;20657;-51
2022/03/02 02:23:31;;;;;;;13.53;12.10;;;;;;;0.01;78.08;97266.72;5110482;28;20555;-52
2022/03/02 02:25:58;;;;;;;16.23;12.60;;;;;;;0.06;78.69;97271.75;5114630;28;20232;-52
2022/03/02 02:28:28;;;;;;;16.07;11.93;;;;;;;-0.01;78.32;97268.56;5114583;28;20205;-51
2022/03/02 02:30:55;;;;;;;16.17;13.00;;;;;;;0.03;77.31;97269.28;5115213;28;20197;-52
2022/03/02 02:33:22;;;;;;;14.70;12.10;;;;;;;0.02;78.44;97270.19;5114050;28;20217;-53
2022/03/02 02:35:49;;;;;;;16.13;12.47;;;;;;;0.05;78.42;97272.63;5114858;28;20197;-51
2022/03/02 02:38:17;;;;;;;15.30;12.63;;;;;;;0.03;77.63;97266.69;5114158;28;20199;-52
2022/03/02 02:40:44;;;;;;;16.90;12.40;;;;;;;0.00;78.04;97265.88;5115000;28;20215;-51
2022/03/02 02:43:11;;;;;;;18.67;11.93;;;;;;;-0.02;77.89;97262.50;5114657;28;20536;-51
2022/03/02 02:45:38;;;;;;;15.47;12.47;;;;;;;0.01;77.73;97266.72;5113877;28;20241;-51
2022/03/02 02:48:04;;;;;;;14.80;12.23;;;;;;;-0.07;77.96;97267.03;5114722;28;20214;-53
2022/03/02 02:50:33;;;;;;;15.37;11.60;;;;;;;-0.06;78.67;97263.53;5114647;28;20731;-52
2022/03/02 02:53:01;;;;;;;16.93;11.13;;;;;;;0.00;78.32;97263.28;5113584;28;20198;-50
2022/03/02 02:55:30;;;;;;;14.07;11.77;;;;;;;-0.05;77.93;97257.44;5113643;28;20197;-52
2022/03/02 02:57:58;;;;;;;15.47;12.47;;;;;;;-0.06;78.90;97268.72;5117859;28;20213;-52
2022/03/02 03:00:26;;;;;;;16.00;11.77;;;;;;;-0.09;78.44;97263.66;5121266;28;20208;-52
2022/03/02 03:02:54;;;;;;;14.23;11.97;;;;;;;-0.07;77.79;97261.00;5114831;28;20189;-51
2022/03/02 03:05:22;;;;;;;15.30;11.97;;;;;;;-0.10;78.64;97255.91;5114196;28;20552;-51
2022/03/02 03:07:49;;;;;;;14.03;12.20;;;;;;;-0.18;77.71;97253.63;5114007;28;20297;-50
2022/03/02 03:10:16;;;;;;;13.57;11.80;;;;;;;-0.19;78.40;97251.97;5114537;28;20781;-51
2022/03/02 03:12:46;;;;;;;18.20;12.73;;;;;;;-0.20;78.55;97252.88;5114006;28;20654;-53
2022/03/02 03:15:14;;;;;;;14.33;12.20;;;;;;;-0.26;79.22;97255.72;5114190;28;20194;-51
2022/03/02 03:17:40;;;;;;;15.57;12.23;;;;;;;-0.27;78.40;97255.78;5117809;28;20621;-52
2022/03/02 03:20:10;;;;;;;16.53;11.60;;;;;;;-0.29;78.85;97261.03;5115290;28;20217;-50
2022/03/02 03:22:39;;;;;;;14.37;11.73;;;;;;;-0.35;78.43;97258.69;5113930;28;20623;-53
2022/03/02 03:25:07;;;;;;;13.73;11.23;;;;;;;-0.29;78.90;97250.66;5113547;28;20252;-50
2022/03/02 03:27:34;;;;;;;15.23;11.67;;;;;;;-0.28;78.43;97251.47;5117291;28;20234;-51
2022/03/02 03:30:02;;;;;;;15.03;11.93;;;;;;;-0.28;78.58;97244.53;5115682;28;20205;-53
2022/03/02 03:32:28;;;;;;;14.40;11.80;;;;;;;-0.31;78.24;97242.06;5115539;28;20205;-53
2022/03/02 03:34:55;;;;;;;14.33;12.07;;;;;;;-0.33;79.94;97243.88;5117175;28;20267;-52
2022/03/02 03:37:21;;;;;;;14.70;11.80;;;;;;;-0.34;79.00;97242.19;5117029;28;20212;-52
2022/03/02 03:39:48;;;;;;;13.13;11.73;;;;;;;-0.30;79.02;97250.69;5117497;28;20208;-52
2022/03/02 03:42:14;;;;;;;15.10;11.93;;;;;;;-0.34;79.30;97246.53;5117616;28;20534;-51
2022/03/02 03:44:41;;;;;;;14.17;11.80;;;;;;;-0.32;78.99;97250.75;5116318;28;20665;-51
2022/03/02 03:47:09;;;;;;;17.13;13.33;;;;;;;-0.38;78.55;97245.81;5115808;28;20569;-51
2022/03/02 03:49:36;;;;;;;15.97;11.97;;;;;;;-0.37;79.13;97252.72;5114212;28;20204;-51
2022/03/02 03:52:03;;;;;;;18.33;12.77;;;;;;;-0.36;78.83;97250.97;5115286;28;20240;-52
2022/03/02 03:54:30;;;;;;;14.40;12.07;;;;;;;-0.39;79.72;97248.50;5114492;28;20272;-52
2022/03/02 03:56:57;;;;;;;15.60;12.23;;;;;;;-0.44;80.33;97251.25;5113798;28;20205;-52
2022/03/02 03:59:23;;;;;;;14.50;12.37;;;;;;;-0.36;80.07;97254.41;5114927;28;20197;-53
2022/03/02 04:01:50;;;;;;;14.53;12.10;;;;;;;-0.33;79.78;97243.03;5113172;28;20686;-50
2022/03/02 04:04:21;;;;;;;15.40;12.57;;;;;;;-0.34;79.32;97244.78;5113336;28;20630;-51
2022/03/02 04:06:47;;;;;;;15.80;13.00;;;;;;;-0.32;79.36;97242.13;5109947;28;21459;-51
2022/03/02 04:09:14;;;;;;;15.97;13.23;;;;;;;-0.41;80.41;97240.75;5113455;28;20197;-50
2022/03/02 04:11:40;;;;;;;14.70;11.90;;;;;;;-0.44;79.95;97235.69;5113639;28;20212;-50
2022/03/02 04:14:08;;;;;;;15.67;12.37;;;;;;;-0.47;79.74;97233.19;5115316;28;20227;-50
2022/03/02 04:16:34;;;;;;;13.87;12.33;;;;;;;-0.48;80.00;97236.69;5115449;28;20263;-51
2022/03/02 04:19:01;;;;;;;17.33;13.23;;;;;;;-0.47;79.28;97234.94;5118900;28;20637;-52
2022/03/02 04:21:29;;;;;;;16.70;12.60;;;;;;;-0.44;79.22;97230.47;5125706;28;20208;-52
2022/03/02 04:23:56;;;;;;;16.50;12.23;;;;;;;-0.45;79.83;97227.94;5122668;28;20212;-50
2022/03/02 04:26:23;;;;;;;15.03;12.53;;;;;;;-0.53;79.63;97225.63;5121897;28;20534;-52
2022/03/02 04:28:49;;;;;;;15.43;12.60;;;;;;;-0.54;79.66;97224.81;5122261;28;20201;-52
2022/03/02 04:31:16;;;;;;;15.63;12.23;;;;;;;-0.54;79.23;97224.81;5113566;28;20205;-52
2022/03/02 04:33:42;;;;;;;13.67;11.43;;;;;;;-0.55;80.40;97227.47;5113072;28;20193;-51
2022/03/02 04:36:09;;;;;;;15.50;11.90;;;;;;;-0.60;79.34;97229.38;5112206;28;20191;-52
2022/03/02 04:38:37;;;;;;;14.50;12.20;;;;;;;-0.58;79.58;97227.59;5112377;28;20577;-53
2022/03/02 04:41:04;;;;;;;17.10;12.47;;;;;;;-0.56;78.70;97223.16;5112601;28;20212;-51
2022/03/02 04:43:30;;;;;;;16.83;12.57;;;;;;;-0.63;78.90;97224.31;5112647;28;20220;-51
2022/03/02 04:45:57;;;;;;;16.10;13.57;;;;;;;-0.65;80.14;97231.34;5114574;28;20220;-52
2022/03/02 04:48:24;;;;;;;15.43;11.70;;;;;;;-0.60;80.06;97224.19;5112686;28;20222;-50
2022/03/02 04:50:51;;;;;;;16.67;11.97;;;;;;;-0.74;80.30;97221.28;5112449;28;20283;-51
2022/03/02 04:53:18;;;;;;;14.43;12.03;;;;;;;-0.66;79.99;97224.44;5111550;28;20208;-50
2022/03/02 04:55:46;;;;;;;14.00;12.13;;;;;;;-0.68;79.31;97215.88;5111548;28;20192;-51
2022/03/02 04:58:13;;;;;;;17.77;12.30;;;;;;;-0.64;79.82;97217.47;5112149;28;20201;-50
2022/03/02 05:00:40;;;;;;;17.43;13.23;;;;;;;-0.70;79.50;97217.69;5111128;28;20211;-50
2022/03/02 05:03:07;;;;;;;15.27;12.93;;;;;;;-0.81;81.05;97214.66;5111590;28;20228;-51
2022/03/02 05:05:36;;;;;;;15.97;12.47;;;;;;;-0.75;80.41;97217.88;5112006;28;20246;-51
2022/03/02 05:08:02;;;;;;;16.17;12.37;;;;;;;-0.75;79.99;97219.63;5112157;28;20209;-50
2022/03/02 05:10:29;;;;;;;15.13;12.60;;;;;;;-0.79;80.63;97215.47;5112135;28;20237;-51
2022/03/02 05:12:57;;;;;;;16.20;13.07;;;;;;;-0.81;81.19;97215.50;5111771;28;20217;-52
2022/03/02 05:15:24;;;;;;;16.87;13.67;;;;;;;-0.86;79.78;97211.41;5111654;28;20223;-50
2022/03/02 05:17:51;;;;;;;17.47;13.13;;;;;;;-0.84;79.44;97207.84;5115886;28;20198;-51
2022/03/02 05:20:19;;;;;;;16.03;12.90;;;;;;;-0.78;79.97;97211.97;5115373;28;20208;-50
2022/03/02 05:22:47;;;;;;;16.23;12.77;;;;;;;-0.86;79.70;97203.63;5117632;28;20294;-51
2022/03/02 05:25:13;;;;;;;18.40;13.57;;;;;;;-0.83;79.45;97200.91;5118075;28;20229;-51
2022/03/02 05:27:41;;;;;;;16.17;13.00;;;;;;;-0.83;79.81;97196.56;5116848;28;20213;-52
2022/03/02 05:30:10;;;;;;;17.97;14.13;;;;;;;-0.85;80.45;97193.16;5111856;28;20208;-52
2022/03/02 05:32:37;;;;;;;17.20;12.97;;;;;;;-0.88;80.47;97184.66;5111227;28;20296;-53
2022/03/02 05:35:04;;;;;;;18.30;12.90;;;;;;;-0.84;81.00;97188.81;5111247;28;20201;-51
2022/03/02 05:37:31;;;;;;;16.57;13.07;;;;;;;-0.79;79.94;97190.34;5110609;28;20248;-52
2022/03/02 05:39:57;;;;;;;17.40;12.60;;;;;;;-0.75;80.65;97191.06;5111840;28;20223;-50
2022/03/02 05:42:24;;;;;;;15.57;12.70;;;;;;;-0.74;80.71;97190.13;5111696;28;20207;-52
2022/03/02 05:44:50;;;;;;;15.20;12.77;;;;;;;-0.74;80.16;97190.13;5112021;28;20208;-51
2022/03/02 05:47:18;;;;;;;16.23;12.57;;;;;;;-0.74;79.84;97190.13;5112168;28;20217;-52
2022/03/02 05:49:45;;;;;;;16.53;13.07;;;;;;;-0.75;80.41;97206.66;5112200;28;20209;-50
2022/03/02 05:52:11;;;;;;;19.70;13.57;;;;;;;-0.80;79.86;97209.41;5111841;28;20213;-50
2022/03/02 05:54:38;;;;;;;16.97;14.07;;;;;;;-0.89;79.36;97216.72;5112408;28;20213;-50
2022/03/02 05:57:05;;;;;;;18.53;13.47;;;;;;;-0.85;80.09;97219.13;5111210;28;20197;-51
2022/03/02 05:59:32;;;;;;;16.87;13.13;;;;;;;-0.94;80.61;97218.66;5114036;28;20209;-52
2022/03/02 06:01:58;;;;;;;16.60;12.70;;;;;;;-1.01;81.68;97213.69;5116858;28;20656;-51
2022/03/02 06:04:26;;;;;;;15.77;12.10;;;;;;;-1.01;82.55;97218.88;5116751;28;20651;-50
2022/03/02 06:06:53;;;;;;;16.13;11.73;;;;;;;-0.94;81.96;97214.31;5116101;28;20247;-50
2022/03/02 06:09:21;;;;;;;15.90;11.87;;;;;;;-0.90;81.93;97225.41;5116495;28;20209;-53
2022/03/02 06:11:48;;;;;;;16.57;13.20;;;;;;;-0.92;80.40;97216.84;5116141;28;20221;-51
2022/03/02 06:14:15;;;;;;;16.27;12.70;;;;;;;-0.96;81.61;97216.13;5115751;28;20207;-50
2022/03/02 06:16:43;;;;;;;15.00;12.47;;;;;;;-0.98;82.26;97217.06;5115021;28;20204;-51
2022/03/02 06:19:10;;;;;;;14.10;11.83;;;;;;;-0.87;81.33;97220.09;5115431;28;20208;-50
2022/03/02 06:21:40;;;;;;;16.00;12.53;;;;;;;-1.01;81.04;97216.28;5115933;28;20213;-52
2022/03/02 06:24:08;;;;;;;15.23;12.83;;;;;;;-0.89;81.20;97221.91;5114626;28;20200;-52
2022/03/02 06:26:35;;;;;;;14.03;11.90;;;;;;;-0.84;80.88;97219.97;5114443;28;20217;-52
2022/03/02 06:29:02;;;;;;;15.97;12.20;;;;;;;-0.79;81.55;97215.47;5114743;28;20206;-53
2022/03/02 06:31:28;;;;;;;14.10;11.40;;;;;;;-0.77;81.69;97221.41;5114929;28;20212;-52
2022/03/02 06:33:55;;;;;;;15.17;11.83;;;;;;;-0.77;81.40;97208.44;5114962;28;20201;-52
2022/03/02 06:36:22;;;;;;;18.70;13.30;;;;;;;-0.65;79.43;97210.56;5113808;28;20757;-51
2022/03/02 06:38:50;;;;;;;14.40;11.07;;;;;;;-0.43;79.71;97206.19;5113887;28;20205;-52
2022/03/02 06:41:25;;;;;;;16.07;11.73;;;;;;;-0.27;79.72;97202.03;5113486;28;20220;-51
2022/03/02 06:43:57;;;;;;;17.57;12.27;;;;;;;0.11;78.22;97203.00;5112809;28;20200;-53
2022/03/02 06:46:32;;;;;;;12.57;10.73;;;;;;;0.14;76.22;97191.66;5112755;28;20271;-52
2022/03/02 06:49:03;;;;;;;13.17;10.83;;;;;;;0.18;78.24;97203.63;5121168;28;20201;-52
2022/03/02 06:51:31;;;;;;;13.87;11.17;;;;;;;0.19;78.07;97205.28;5114790;28;20229;-52
2022/03/02 06:54:04;;;;;;;12.73;10.93;;;;;;;0.27;77.76;97200.59;5113736;28;20707;-53
2022/03/02 06:56:36;;;;;;;17.57;11.90;;;;;;;0.31;77.16;97200.41;5114290;28;20493;-54
2022/03/02 06:59:03;;;;;;;16.07;10.67;;;;;;;0.19;78.76;97189.69;5114647;28;20201;-53
2022/03/02 07:01:31;;;;;;;13.23;11.07;;;;;;;0.29;77.66;97203.97;5113625;28;20233;-52
2022/03/02 07:03:59;;;;;;;14.80;10.80;;;;;;;0.44;77.09;97200.72;5114742;28;20191;-50
2022/03/02 07:06:28;;;;;;;15.10;11.97;;;;;;;0.47;77.18;97197.97;5114938;28;20223;-53
2022/03/02 07:08:55;;;;;;;13.90;11.87;;;;;;;0.58;77.06;97200.94;5114424;28;20584;-53
2022/03/02 07:11:25;;;;;;;15.50;12.90;;;;;;;0.64;76.18;97205.03;5112054;28;20200;-52
2022/03/02 07:13:52;;;;;;;16.90;12.80;;;;;;;0.70;76.74;97207.34;5113797;28;20206;-51
2022/03/02 07:16:21;;;;;;;14.43;12.93;;;;;;;0.79;76.15;97210.38;5114439;28;20226;-51
2022/03/02 07:18:48;;;;;;;16.93;14.03;;;;;;;0.74;75.14;97198.50;5114424;28;20221;-52
2022/03/02 07:21:16;;;;;;;15.77;13.77;;;;;;;0.84;76.47;97203.22;5114184;28;20256;-53
2022/03/02 07:23:46;;;;;;;17.20;14.47;;;;;;;0.82;74.55;97202.44;5115674;28;20197;-53
2022/03/02 07:26:13;;;;;;;15.53;13.37;;;;;;;0.94;75.26;97201.03;5114757;28;20256;-51
2022/03/02 07:28:41;;;;;;;16.07;13.47;;;;;;;1.05;74.77;97200.53;5114481;28;21344;-52
2022/03/02 07:31:10;;;;;;;15.93;13.43;;;;;;;1.10;73.61;97206.38;5115838;28;20202;-51
2022/03/02 07:33:39;;;;;;;19.33;14.03;;;;;;;1.07;73.63;97207.34;5115683;28;21340;-51
2022/03/02 07:36:06;;;;;;;17.93;14.03;;;;;;;1.20;73.60;97210.22;5113961;28;20573;-50
2022/03/02 07:38:33;;;;;;;21.13;14.50;;;;;;;1.29;73.83;97201.97;5113526;28;20197;-52
2022/03/02 07:41:01;;;;;;;17.30;14.60;;;;;;;1.41;72.65;97196.19;5113855;28;20278;-52
2022/03/02 07:43:29;;;;;;;17.77;14.67;;;;;;;1.40;72.16;97197.09;5112276;28;20233;-52
2022/03/02 07:45:57;;;;;;;18.73;13.87;;;;;;;1.37;71.78;97194.63;5112242;28;20643;-52
2022/03/02 07:48:23;;;;;;;19.63;14.20;;;;;;;1.49;72.12;97194.03;5132215;28;20202;-52
2022/03/02 07:50:51;;;;;;;19.80;14.60;;;;;;;1.55;72.34;97196.34;5134311;28;20203;-53
2022/03/02 07:53:17;;;;;;;20.27;15.53;;;;;;;1.66;72.73;97194.06;5126654;28;20218;-53
2022/03/02 07:55:45;;;;;;;20.30;15.33;;;;;;;1.67;72.67;97198.34;5112143;28;20216;-52
2022/03/02 07:58:11;;;;;;;16.77;14.50;;;;;;;1.75;72.36;97198.81;5112485;28;20222;-53
2022/03/02 08:00:38;;;;;;;17.30;14.57;;;;;;;1.91;72.32;97199.72;5112828;28;20292;-52
2022/03/02 08:03:07;;;;;;;20.53;15.37;;;;;;;1.79;71.55;97197.75;5111760;28;20575;-51
2022/03/02 08:05:33;;;;;;;19.50;15.90;;;;;;;1.93;71.72;97189.25;5113289;28;20215;-52
2022/03/02 08:08:00;;;;;;;19.17;15.30;;;;;;;2.04;71.47;97196.53;5113150;28;20219;-52
2022/03/02 08:10:27;;;;;;;19.87;14.17;;;;;;;2.16;70.66;97193.31;5113157;28;20209;-50
2022/03/02 08:12:53;;;;;;;19.77;14.57;;;;;;;2.17;71.73;97194.97;5112275;28;20200;-52
2022/03/02 08:15:20;;;;;;;19.57;15.33;;;;;;;2.25;70.77;97191.06;5116221;28;20682;-52
2022/03/02 08:17:47;;;;;;;19.03;14.97;;;;;;;2.31;70.52;97190.72;5113413;28;20652;-52
2022/03/02 08:20:15;;;;;;;18.70;15.13;;;;;;;2.40;69.06;97190.28;5116839;28;20508;-50
2022/03/02 08:22:45;;;;;;;19.87;15.17;;;;;;;2.53;69.00;97194.81;5113008;28;20283;-50
2022/03/02 08:25:12;;;;;;;17.17;14.63;;;;;;;2.55;68.02;97188.59;5114378;28;20208;-51
2022/03/02 08:27:40;;;;;;;18.73;14.93;;;;;;;2.62;69.10;97189.13;5112616;28;20231;-51
2022/03/02 08:30:07;;;;;;;21.13;15.63;;;;;;;2.73;68.36;97187.63;5113252;28;20226;-51
2022/03/02 08:32:37;;;;;;;22.03;15.17;;;;;;;2.85;69.10;97191.34;5112272;28;20294;-52
2022/03/02 08:35:05;;;;;;;18.17;15.30;;;;;;;2.93;68.02;97187.41;5113987;28;20221;-51
2022/03/02 08:37:33;;;;;;;18.57;14.87;;;;;;;3.09;68.38;97191.78;5113643;28;20208;-52
2022/03/02 08:40:00;;;;;;;19.43;15.33;;;;;;;3.26;67.87;97194.34;5112093;28;20208;-52
2022/03/02 08:42:30;;;;;;;17.63;15.13;;;;;;;3.36;66.63;97187.66;5116010;28;20219;-51
2022/03/02 08:44:57;;;;;;;19.67;15.10;;;;;;;3.27;65.72;97188.16;5112829;28;20296;-51
2022/03/02 08:47:23;;;;;;;18.93;16.17;;;;;;;3.31;65.59;97184.44;5114727;28;20229;-52
2022/03/02 08:49:50;;;;;;;19.07;14.93;;;;;;;3.33;65.25;97182.59;5122283;28;20196;-51
2022/03/02 08:52:17;;;;;;;19.20;14.70;;;;;;;3.34;64.70;97166.81;5113581;28;20201;-51
2022/03/02 08:54:47;;;;;;;20.20;15.60;;;;;;;3.37;64.91;97163.19;5113900;28;20200;-53
2022/03/02 08:57:14;;;;;;;18.03;15.10;;;;;;;3.50;65.22;97165.03;5112246;28;20196;-51
2022/03/02 08:59:42;;;;;;;22.70;15.63;;;;;;;3.61;64.66;97160.97;5115786;28;20219;-51
2022/03/02 09:02:09;;;;;;;16.27;14.57;;;;;;;3.76;63.67;97160.06;5111364;28;20243;-51
2022/03/02 09:04:37;;;;;;;19.70;15.97;;;;;;;3.99;63.06;97156.97;5114016;28;20246;-51
2022/03/02 09:07:05;;;;;;;19.07;15.37;;;;;;;3.95;63.04;97161.53;5115991;28;20231;-52
2022/03/02 09:09:31;;;;;;;21.03;15.83;;;;;;;3.84;62.60;97150.84;5111958;28;20239;-53
2022/03/02 09:12:03;;;;;;;18.10;15.63;;;;;;;4.03;61.96;97153.25;5117347;28;20212;-53
2022/03/02 09:14:29;;;;;;;22.63;15.40;;;;;;;4.36;62.00;97150.34;5129438;28;20200;-53
2022/03/02 09:16:56;;;;;;;17.63;15.33;;;;;;;4.71;62.05;97145.59;5128631;28;20198;-52
2022/03/02 09:19:23;;;;;;;17.37;14.87;;;;;;;4.90;61.90;97146.13;5121607;28;20497;-53
2022/03/02 09:21:49;;;;;;;17.90;14.70;;;;;;;5.21;59.27;97137.19;5112896;28;20223;-51
2022/03/02 09:24:16;;;;;;;17.80;14.60;;;;;;;5.44;58.35;97136.53;5112233;28;20232;-51
2022/03/02 09:26:43;;;;;;;17.80;15.37;;;;;;;5.79;58.12;97132.44;5110939;28;20217;-52
2022/03/02 09:29:11;;;;;;;16.90;14.70;;;;;;;6.13;54.60;97125.78;5111726;28;20544;-52
2022/03/02 09:31:38;;;;;;;17.70;14.03;;;;;;;6.43;52.55;97122.84;5111221;28;20250;-53
2022/03/02 09:34:08;;;;;;;16.40;14.70;;;;;;;6.49;53.10;97114.53;5111304;28;20394;-51
2022/03/02 09:36:37;;;;;;;18.30;14.33;;;;;;;6.33;52.64;97117.41;5111186;28;20216;-52
2022/03/02 09:39:04;;;;;;;16.90;14.50;;;;;;;6.64;53.02;97116.09;5110958;28;20205;-54
2022/03/02 09:41:37;;;;;;;16.20;14.33;;;;;;;6.71;51.61;97114.72;5110475;28;20212;-52
2022/03/02 09:44:06;;;;;;;17.93;14.23;;;;;;;7.14;52.70;97115.16;5110262;28;20197;-53
2022/03/02 09:46:36;;;;;;;18.13;14.60;;;;;;;7.16;51.47;97109.75;5110500;28;20215;-53
2022/03/02 09:49:08;;;;;;;17.93;14.50;;;;;;;7.61;49.61;97109.06;5111903;28;20208;-52
2022/03/02 09:51:36;;;;;;;16.07;14.37;;;;;;;7.55;50.96;97103.38;5111433;28;20620;-51
2022/03/02 09:54:04;;;;;;;16.33;14.00;;;;;;;7.91;51.83;97112.00;5111719;28;20216;-53
2022/03/02 09:56:35;;;;;;;17.80;15.03;;;;;;;7.92;49.40;97110.22;5112096;28;20197;-51
2022/03/02 09:59:04;;;;;;;15.77;14.00;;;;;;;7.71;49.00;97099.50;5111737;28;20185;-52
2022/03/02 10:01:32;;;;;;;16.30;13.87;;;;;;;8.24;50.10;97105.16;5109144;28;20228;-52
2022/03/02 10:04:07;;;;;;;18.43;15.07;;;;;;;8.43;49.30;97097.56;5110973;28;20690;-52
2022/03/02 10:06:35;;;;;;;16.13;13.47;;;;;;;8.58;47.89;97101.59;5111603;28;20620;-52
2022/03/02 10:09:03;;;;;;;16.77;14.13;;;;;;;8.90;45.77;97105.19;5109971;28;20516;-54
2022/03/02 10:11:30;;;;;;;15.17;13.57;;;;;;;9.50;46.59;97093.31;5115453;28;20201;-54
2022/03/02 10:13:58;;;;;;;18.57;13.20;;;;;;;9.08;43.36;97088.88;5118585;28;20201;-54
2022/03/02 10:16:26;;;;;;;16.13;12.73;;;;;;;10.16;43.42;97086.06;5119321;28;20209;-55
2022/03/02 10:18:56;;;;;;;15.63;12.47;;;;;;;10.68;41.79;97085.09;5111500;28;20252;-54
2022/03/02 10:21:29;;;;;;;16.80;13.77;;;;;;;10.47;42.44;97090.41;5111164;28;20209;-54
2022/03/02 10:23:59;;;;;;;14.70;12.90;;;;;;;10.55;41.12;97079.19;5110668;28;20197;-53
2022/03/02 10:26:27;;;;;;;17.50;13.30;;;;;;;10.59;42.58;97075.31;5110925;28;20216;-55
2022/03/02 10:29:00;;;;;;;18.33;13.93;;;;;;;10.45;42.93;97073.88;5110495;28;20197;-53
2022/03/02 10:31:46;;;;;;;15.80;13.37;;;;;;;10.79;39.68;97067.31;5109401;28;20220;-54
2022/03/02 10:34:29;;;;;;;14.93;11.90;;;;;;;11.31;41.72;97068.00;5110248;28;20193;-54
2022/03/02 10:37:04;;;;;;;16.93;12.87;;;;;;;11.59;39.05;97058.38;5110968;28;20258;-54
2022/03/02 10:39:39;;;;;;;17.80;13.50;;;;;;;11.69;39.12;97057.41;5110538;28;20201;-51
2022/03/02 10:42:06;;;;;;;14.50;13.00;;;;;;;11.76;40.04;97053.25;5115787;28;20204;-53
2022/03/02 10:44:40;;;;;;;20.33;13.67;;;;;;;11.97;38.73;97051.28;5119005;28;20186;-53
2022/03/02 10:47:11;;;;;;;17.23;13.40;;;;;;;12.75;38.67;97049.28;5114575;28;20201;-55
2022/03/02 10:49:38;;;;;;;16.97;13.63;;;;;;;13.17;37.60;97047.00;5112950;28;20299;-54
2022/03/02 10:52:06;;;;;;;15.60;12.40;;;;;;;13.04;36.05;97041.16;5115197;28;20193;-53
2022/03/02 10:54:33;;;;;;;13.67;12.27;;;;;;;12.36;37.58;97035.31;5116158;28;20197;-53
2022/03/02 10:57:04;;;;;;;15.07;12.93;;;;;;;11.73;37.74;97035.00;5121867;28;20216;-53
2022/03/02 10:59:32;;;;;;;16.77;12.63;;;;;;;11.65;38.08;97036.66;5123102;28;20196;-51
2022/03/02 11:02:00;;;;;;;17.07;12.50;;;;;;;11.68;38.25;97039.03;5116562;28;20553;-52
2022/03/02 11:04:30;;;;;;;14.57;12.60;;;;;;;11.89;39.45;97043.22;5122836;28;20212;-51
2022/03/02 11:06:56;;;;;;;13.77;12.43;;;;;;;11.77;39.46;97039.06;5123488;28;20205;-52
2022/03/02 11:09:25;;;;;;;14.57;12.97;;;;;;;11.43;38.44;97030.66;5114738;28;20209;-52
2022/03/02 11:11:54;;;;;;;15.67;13.27;;;;;;;11.43;39.69;97029.84;5115058;28;20196;-51
2022/03/02 11:14:21;;;;;;;18.57;14.17;;;;;;;11.52;40.65;97034.28;5114518;28;20205;-50
2022/03/02 11:16:50;;;;;;;19.07;14.67;;;;;;;11.42;41.71;97029.00;5115317;28;20204;-52
2022/03/02 11:19:18;;;;;;;20.27;14.47;;;;;;;11.43;42.07;97024.53;5128234;28;20238;-52
2022/03/02 11:21:45;;;;;;;16.60;14.80;;;;;;;11.22;42.23;97016.72;5130411;28;20205;-53
2022/03/02 11:24:16;;;;;;;19.03;14.17;;;;;;;11.18;41.78;97019.78;5118727;28;20205;-52